createdAt,value
2019-02-21T00:00:37.087Z,16.48
2019-02-21T00:01:15.891Z,18.87
2019-02-21T00:01:50.542Z,12.85
2019-02-21T00:02:25.185Z,22.77
2019-02-21T00:02:57.787Z,11.68
2019-02-21T00:03:30.421Z,17.87
2019-02-21T00:04:03.862Z,15.43
2019-02-21T00:04:36.416Z,16.32
2019-02-21T00:05:09.342Z,15.72
2019-02-21T00:05:42.206Z,21.40
2019-02-21T00:06:14.678Z,20.82
2019-02-21T00:06:47.523Z,21.40
2019-02-21T00:07:20.059Z,21.15
2019-02-21T00:07:52.548Z,25.32
2019-02-21T00:08:25.435Z,16.30
2019-02-21T00:08:58.258Z,20.15
2019-02-21T00:09:30.866Z,16.35
2019-02-21T00:10:04.220Z,25.92
2019-02-21T00:10:36.690Z,19.60
2019-02-21T00:11:09.488Z,16.23
2019-02-21T00:11:41.938Z,20.88
2019-02-21T00:12:14.448Z,26.97
2019-02-21T00:12:46.984Z,13.78
2019-02-21T00:13:19.458Z,14.75
2019-02-21T00:13:52.747Z,22.25
2019-02-21T00:14:25.607Z,14.65
2019-02-21T00:14:58.087Z,20.88
2019-02-21T00:15:31.419Z,19.50
2019-02-21T00:16:03.911Z,19.32
2019-02-21T00:16:36.776Z,17.67
2019-02-21T00:17:09.263Z,23.50
2019-02-21T00:17:42.171Z,18.23
2019-02-21T00:18:14.670Z,20.05
2019-02-21T00:18:47.472Z,21.15
2019-02-21T00:19:20.665Z,17.07
2019-02-21T00:19:53.123Z,23.22
2019-02-21T00:20:25.982Z,20.43
2019-02-21T00:20:58.446Z,23.95
2019-02-21T00:21:30.919Z,19.45
2019-02-21T00:22:03.394Z,18.55
2019-02-21T00:22:35.972Z,17.35
2019-02-21T00:23:09.416Z,19.30
2019-02-21T00:23:42.248Z,26.27
2019-02-21T00:24:14.702Z,15.40
2019-02-21T00:24:47.538Z,17.23
2019-02-21T00:25:20.619Z,17.70
2019-02-21T00:25:55.682Z,24.25
2019-02-21T00:26:27.516Z,17.32
2019-02-21T00:27:00.331Z,17.87
2019-02-21T00:27:32.796Z,17.45
2019-02-21T00:28:05.660Z,20.45
2019-02-21T00:28:38.148Z,14.65
2019-02-21T00:29:10.652Z,20.10
2019-02-21T00:29:43.114Z,16.12
2019-02-21T00:30:15.582Z,23.25
2019-02-21T00:30:48.063Z,24.63
2019-02-21T00:31:20.856Z,17.52
2019-02-21T00:31:53.334Z,18.77
2019-02-21T00:32:25.813Z,16.85
2019-02-21T00:32:58.582Z,17.25
2019-02-21T00:33:31.055Z,20.50
2019-02-21T00:34:03.848Z,18.98
2019-02-21T00:34:36.933Z,18.10
2019-02-21T00:35:09.382Z,25.05
2019-02-21T00:35:42.146Z,14.15
2019-02-21T00:36:15.001Z,14.90
2019-02-21T00:36:47.476Z,22.32
2019-02-21T00:37:20.683Z,18.15
2019-02-21T00:37:53.815Z,17.27
2019-02-21T00:38:26.606Z,14.63
2019-02-21T00:38:59.084Z,22.93
2019-02-21T00:39:32.262Z,14.53
2019-02-21T00:40:05.053Z,20.62
2019-02-21T00:40:37.796Z,18.73
2019-02-21T00:41:10.959Z,17.27
2019-02-21T00:41:43.428Z,14.05
2019-02-21T00:42:15.903Z,16.82
2019-02-21T00:42:49.052Z,16.32
2019-02-21T00:43:21.523Z,17.20
2019-02-21T00:43:54.624Z,20.72
2019-02-21T00:44:27.396Z,18.62
2019-02-21T00:44:59.867Z,17.90
2019-02-21T00:45:32.785Z,13.43
2019-02-21T00:46:05.990Z,15.13
2019-02-21T00:46:38.837Z,21.00
2019-02-21T00:47:11.320Z,15.70
2019-02-21T00:47:44.075Z,15.20
2019-02-21T00:48:17.256Z,21.68
2019-02-21T00:48:50.006Z,11.55
2019-02-21T00:49:22.484Z,24.92
2019-02-21T00:49:55.339Z,17.35
2019-02-21T00:50:28.221Z,16.37
2019-02-21T00:51:01.089Z,18.15
2019-02-21T00:51:33.842Z,18.95
2019-02-21T00:52:06.697Z,21.10
2019-02-21T00:52:39.226Z,16.90
2019-02-21T00:53:11.730Z,21.87
2019-02-21T00:53:44.525Z,17.10
2019-02-21T00:54:16.996Z,23.45
2019-02-21T00:54:49.482Z,16.73
2019-02-21T00:55:21.930Z,15.32
2019-02-21T00:55:54.397Z,22.17
2019-02-21T00:56:27.231Z,22.50
2019-02-21T00:56:59.996Z,18.57
2019-02-21T00:57:33.176Z,16.60
2019-02-21T00:58:05.771Z,17.82
2019-02-21T00:58:38.245Z,17.20
2019-02-21T00:59:11.384Z,17.05
2019-02-21T00:59:43.839Z,19.52
2019-02-21T01:00:16.405Z,15.80
2019-02-21T01:00:49.614Z,23.38
2019-02-21T01:01:22.101Z,11.85
2019-02-21T01:01:54.592Z,17.65
2019-02-21T01:02:27.043Z,23.32
2019-02-21T01:02:59.921Z,12.18
2019-02-21T01:03:32.400Z,18.98
2019-02-21T01:04:04.875Z,16.75
2019-02-21T01:04:37.335Z,17.70
2019-02-21T01:05:09.819Z,21.42
2019-02-21T01:05:42.279Z,14.68
2019-02-21T01:06:14.749Z,15.58
2019-02-21T01:06:47.524Z,14.23
2019-02-21T01:07:20.344Z,15.63
2019-02-21T01:07:52.810Z,15.18
2019-02-21T01:08:25.658Z,15.93
2019-02-21T01:08:58.146Z,15.58
2019-02-21T01:09:30.724Z,20.10
2019-02-21T01:10:03.357Z,15.50
2019-02-21T01:10:36.134Z,12.15
2019-02-21T01:11:09.006Z,24.65
2019-02-21T01:11:41.477Z,15.95
2019-02-21T01:12:14.287Z,18.40
2019-02-21T01:12:47.402Z,18.95
2019-02-21T01:13:19.862Z,23.62
2019-02-21T01:13:52.319Z,16.93
2019-02-21T01:14:24.791Z,13.58
2019-02-21T01:14:57.871Z,13.13
2019-02-21T01:15:30.359Z,14.38
2019-02-21T01:16:03.195Z,12.35
2019-02-21T01:16:36.082Z,12.93
2019-02-21T01:17:08.564Z,13.95
2019-02-21T01:17:41.702Z,23.18
2019-02-21T01:18:14.519Z,16.55
2019-02-21T01:18:46.991Z,20.30
2019-02-21T01:19:19.457Z,13.22
2019-02-21T01:19:52.255Z,17.62
2019-02-21T01:20:25.060Z,14.45
2019-02-21T01:20:57.526Z,13.75
2019-02-21T01:21:30.012Z,15.58
2019-02-21T01:22:03.560Z,15.78
2019-02-21T01:22:36.027Z,16.75
2019-02-21T01:23:08.898Z,14.98
2019-02-21T01:23:41.719Z,23.75
2019-02-21T01:24:14.210Z,17.45
2019-02-21T01:24:46.677Z,20.77
2019-02-21T01:25:19.135Z,24.98
2019-02-21T01:25:51.877Z,15.58
2019-02-21T01:26:25.100Z,18.98
2019-02-21T01:26:57.830Z,24.20
2019-02-21T01:27:30.916Z,17.73
2019-02-21T01:28:03.793Z,22.35
2019-02-21T01:28:36.270Z,15.85
2019-02-21T01:29:09.134Z,16.52
2019-02-21T01:29:41.612Z,12.50
2019-02-21T01:30:14.074Z,13.40
2019-02-21T01:30:56.426Z,15.28
2019-02-21T01:31:20.831Z,13.30
2019-02-21T01:31:53.849Z,19.62
2019-02-21T01:32:26.302Z,14.47
2019-02-21T01:32:58.763Z,19.77
2019-02-21T01:33:31.508Z,18.90
2019-02-21T01:34:04.364Z,19.52
2019-02-21T01:34:36.862Z,12.13
2019-02-21T01:35:09.661Z,24.87
2019-02-21T01:35:42.430Z,17.80
2019-02-21T01:36:15.180Z,15.48
2019-02-21T01:36:48.273Z,20.52
2019-02-21T01:37:21.060Z,22.05
2019-02-21T01:37:54.230Z,17.17
2019-02-21T01:38:26.682Z,16.23
2019-02-21T01:38:59.447Z,15.38
2019-02-21T01:39:31.907Z,17.35
2019-02-21T01:40:05.261Z,15.72
2019-02-21T01:40:38.171Z,16.95
2019-02-21T01:41:10.643Z,19.25
2019-02-21T01:41:43.094Z,19.05
2019-02-21T01:42:15.576Z,17.57
2019-02-21T01:42:48.039Z,13.60
2019-02-21T01:43:20.894Z,13.40
2019-02-21T01:43:53.648Z,21.05
2019-02-21T01:44:26.485Z,21.12
2019-02-21T01:44:58.951Z,19.80
2019-02-21T01:45:31.464Z,12.47
2019-02-21T01:46:03.912Z,17.75
2019-02-21T01:46:36.363Z,13.72
2019-02-21T01:47:08.971Z,15.50
2019-02-21T01:47:42.402Z,18.70
2019-02-21T01:48:14.870Z,20.10
2019-02-21T01:48:47.325Z,21.23
2019-02-21T01:49:19.788Z,20.55
2019-02-21T01:49:52.254Z,17.87
2019-02-21T01:50:25.431Z,15.58
2019-02-21T01:50:57.941Z,19.75
2019-02-21T01:51:30.410Z,17.40
2019-02-21T01:52:02.879Z,21.10
2019-02-21T01:52:35.740Z,15.30
2019-02-21T01:53:08.550Z,15.60
2019-02-21T01:53:41.012Z,23.15
2019-02-21T01:54:13.473Z,12.30
2019-02-21T01:54:45.967Z,24.15
2019-02-21T01:55:18.435Z,16.25
2019-02-21T01:55:50.948Z,20.40
2019-02-21T01:56:23.394Z,14.98
2019-02-21T01:56:56.132Z,17.62
2019-02-21T01:57:29.059Z,18.23
2019-02-21T01:58:01.506Z,18.20
2019-02-21T01:58:33.988Z,16.17
2019-02-21T01:59:06.944Z,23.57
2019-02-21T01:59:39.806Z,19.05
2019-02-21T02:00:12.418Z,18.52
2019-02-21T02:00:45.155Z,24.52
2019-02-21T02:01:18.020Z,12.65
2019-02-21T02:01:50.523Z,19.98
2019-02-21T02:02:22.995Z,24.98
2019-02-21T02:02:55.475Z,18.35
2019-02-21T02:03:28.472Z,23.27
2019-02-21T02:04:01.307Z,19.82
2019-02-21T02:04:33.784Z,20.02
2019-02-21T02:05:07.200Z,19.02
2019-02-21T02:05:39.672Z,19.57
2019-02-21T02:06:12.142Z,16.67
2019-02-21T02:06:44.609Z,15.45
2019-02-21T02:07:17.403Z,19.52
2019-02-21T02:07:50.178Z,20.20
2019-02-21T02:08:23.290Z,24.23
2019-02-21T02:08:56.059Z,11.85
2019-02-21T02:09:28.859Z,18.70
2019-02-21T02:10:01.690Z,21.87
2019-02-21T02:10:34.767Z,14.87
2019-02-21T02:11:07.233Z,16.62
2019-02-21T02:11:39.771Z,24.67
2019-02-21T02:12:12.227Z,19.77
2019-02-21T02:12:44.727Z,19.73
2019-02-21T02:13:24.508Z,20.88
2019-02-21T02:13:51.466Z,21.30
2019-02-21T02:14:24.247Z,14.25
2019-02-21T02:14:56.724Z,20.37
2019-02-21T02:15:29.516Z,19.07
2019-02-21T02:16:02.013Z,23.73
2019-02-21T02:16:34.473Z,21.02
2019-02-21T02:17:07.271Z,19.87
2019-02-21T02:17:39.727Z,16.10
2019-02-21T02:18:12.232Z,23.45
2019-02-21T02:18:44.711Z,17.90
2019-02-21T02:19:17.479Z,20.25
2019-02-21T02:19:49.946Z,17.73
2019-02-21T02:20:22.409Z,16.90
2019-02-21T02:20:54.874Z,17.35
2019-02-21T02:21:27.344Z,19.42
2019-02-21T02:22:00.146Z,16.37
2019-02-21T02:22:33.340Z,18.90
2019-02-21T02:23:06.185Z,15.95
2019-02-21T02:23:38.706Z,21.02
2019-02-21T02:24:11.163Z,23.75
2019-02-21T02:24:43.630Z,23.15
2019-02-21T02:25:16.102Z,18.10
2019-02-21T02:25:48.572Z,15.08
2019-02-21T02:26:21.153Z,16.27
2019-02-21T02:26:53.919Z,18.92
2019-02-21T02:27:26.380Z,16.05
2019-02-21T02:27:58.842Z,16.45
2019-02-21T02:28:31.323Z,22.98
2019-02-21T02:29:04.179Z,20.60
2019-02-21T02:29:36.935Z,19.73
2019-02-21T02:30:09.757Z,21.12
2019-02-21T02:30:42.587Z,24.00
2019-02-21T02:31:22.821Z,18.40
2019-02-21T02:31:49.952Z,19.40
2019-02-21T02:32:22.440Z,22.00
2019-02-21T02:32:55.189Z,15.95
2019-02-21T02:33:27.656Z,13.93
2019-02-21T02:34:00.494Z,17.27
2019-02-21T02:34:33.005Z,15.48
2019-02-21T02:35:05.487Z,27.87
2019-02-21T02:35:38.265Z,15.45
2019-02-21T02:36:10.730Z,24.30
2019-02-21T02:36:43.199Z,15.60
2019-02-21T02:37:16.313Z,13.28
2019-02-21T02:37:48.775Z,17.20
2019-02-21T02:38:21.225Z,18.15
2019-02-21T02:38:54.403Z,15.40
2019-02-21T02:39:27.590Z,18.35
2019-02-21T02:40:00.508Z,18.23
2019-02-21T02:40:32.971Z,23.65
2019-02-21T02:41:05.789Z,22.32
2019-02-21T02:41:38.275Z,17.48
2019-02-21T02:42:11.010Z,17.35
2019-02-21T02:42:43.783Z,18.67
2019-02-21T02:43:16.613Z,15.43
2019-02-21T02:43:49.082Z,18.40
2019-02-21T02:44:21.560Z,13.50
2019-02-21T02:44:54.117Z,15.68
2019-02-21T02:45:26.623Z,18.65
2019-02-21T02:45:59.107Z,17.67
2019-02-21T02:46:31.661Z,16.42
2019-02-21T02:47:04.132Z,14.33
2019-02-21T02:47:36.601Z,14.15
2019-02-21T02:48:09.072Z,18.45
2019-02-21T02:48:41.884Z,17.50
2019-02-21T02:49:14.360Z,20.43
2019-02-21T02:49:46.843Z,19.42
2019-02-21T02:50:19.690Z,18.02
2019-02-21T02:50:52.165Z,14.87
2019-02-21T02:51:24.945Z,16.73
2019-02-21T02:51:57.402Z,14.90
2019-02-21T02:52:29.884Z,18.62
2019-02-21T02:53:02.699Z,22.00
2019-02-21T02:53:35.162Z,24.35
2019-02-21T02:54:07.635Z,14.80
2019-02-21T02:54:40.494Z,14.50
2019-02-21T02:55:12.952Z,15.25
2019-02-21T02:55:45.421Z,22.27
2019-02-21T02:56:17.924Z,19.73
2019-02-21T02:56:50.395Z,15.95
2019-02-21T02:57:22.881Z,14.95
2019-02-21T02:57:55.364Z,23.25
2019-02-21T02:58:27.829Z,23.52
2019-02-21T02:59:00.602Z,17.48
2019-02-21T02:59:40.900Z,12.65
2019-02-21T03:00:09.567Z,17.65
2019-02-21T03:00:42.040Z,13.80
2019-02-21T03:01:14.834Z,20.60
2019-02-21T03:01:47.298Z,16.67
2019-02-21T03:02:19.766Z,15.90
2019-02-21T03:02:52.312Z,17.80
2019-02-21T03:03:25.402Z,19.48
2019-02-21T03:03:58.160Z,21.37
2019-02-21T03:04:31.022Z,18.77
2019-02-21T03:05:03.498Z,19.62
2019-02-21T03:05:36.363Z,23.38
2019-02-21T03:06:08.939Z,14.50
2019-02-21T03:06:41.687Z,13.05
2019-02-21T03:07:14.546Z,15.65
2019-02-21T03:07:47.314Z,14.93
2019-02-21T03:08:20.119Z,14.73
2019-02-21T03:08:53.275Z,15.28
2019-02-21T03:09:25.736Z,15.78
2019-02-21T03:09:58.206Z,21.42
2019-02-21T03:10:31.048Z,22.42
2019-02-21T03:11:03.521Z,18.00
2019-02-21T03:11:35.982Z,22.73
2019-02-21T03:12:08.456Z,19.65
2019-02-21T03:12:40.956Z,14.25
2019-02-21T03:13:13.417Z,14.30
2019-02-21T03:13:46.296Z,18.05
2019-02-21T03:14:18.771Z,17.32
2019-02-21T03:14:51.239Z,20.23
2019-02-21T03:15:23.704Z,15.53
2019-02-21T03:15:56.179Z,15.95
2019-02-21T03:16:29.231Z,21.02
2019-02-21T03:17:01.688Z,21.05
2019-02-21T03:17:34.154Z,17.65
2019-02-21T03:18:06.652Z,16.73
2019-02-21T03:18:39.128Z,20.02
2019-02-21T03:19:11.608Z,17.32
2019-02-21T03:19:44.061Z,26.23
2019-02-21T03:20:16.535Z,16.17
2019-02-21T03:20:49.007Z,16.40
2019-02-21T03:21:21.480Z,19.27
2019-02-21T03:21:53.955Z,19.52
2019-02-21T03:22:26.743Z,13.48
2019-02-21T03:22:59.201Z,16.35
2019-02-21T03:23:31.716Z,19.85
2019-02-21T03:24:04.197Z,15.08
2019-02-21T03:24:36.667Z,24.05
2019-02-21T03:25:09.260Z,16.17
2019-02-21T03:25:41.711Z,15.60
2019-02-21T03:26:14.190Z,18.40
2019-02-21T03:26:47.046Z,17.07
2019-02-21T03:27:19.912Z,16.50
2019-02-21T03:27:52.377Z,20.90
2019-02-21T03:28:25.544Z,13.95
2019-02-21T03:28:58.334Z,16.00
2019-02-21T03:29:30.798Z,29.82
2019-02-21T03:30:03.840Z,21.02
2019-02-21T03:30:36.667Z,22.65
2019-02-21T03:31:09.137Z,17.48
2019-02-21T03:31:53.423Z,13.25
2019-02-21T03:32:15.885Z,16.05
2019-02-21T03:32:48.372Z,17.35
2019-02-21T03:33:20.951Z,16.27
2019-02-21T03:33:53.417Z,17.15
2019-02-21T03:34:26.288Z,14.47
2019-02-21T03:34:59.792Z,15.43
2019-02-21T03:35:32.281Z,23.47
2019-02-21T03:36:04.768Z,20.05
2019-02-21T03:36:37.235Z,14.95
2019-02-21T03:37:09.693Z,16.97
2019-02-21T03:37:42.181Z,18.42
2019-02-21T03:38:14.630Z,21.07
2019-02-21T03:38:47.098Z,13.45
2019-02-21T03:39:19.874Z,19.55
2019-02-21T03:39:52.381Z,16.25
2019-02-21T03:40:24.844Z,20.90
2019-02-21T03:40:57.307Z,17.02
2019-02-21T03:41:29.799Z,14.63
2019-02-21T03:42:02.278Z,13.60
2019-02-21T03:42:34.747Z,18.90
2019-02-21T03:43:07.220Z,13.90
2019-02-21T03:43:40.079Z,19.85
2019-02-21T03:44:19.803Z,16.57
2019-02-21T03:45:01.853Z,16.55
2019-02-21T03:45:34.529Z,18.42
2019-02-21T03:46:07.004Z,15.90
2019-02-21T03:46:39.454Z,20.68
2019-02-21T03:47:12.308Z,17.37
2019-02-21T03:47:44.785Z,14.38
2019-02-21T03:48:17.578Z,20.95
2019-02-21T03:48:50.055Z,19.48
2019-02-21T03:49:22.551Z,16.20
2019-02-21T03:49:55.001Z,22.30
2019-02-21T03:50:27.628Z,18.20
2019-02-21T03:51:00.099Z,21.05
2019-02-21T03:51:32.559Z,26.45
2019-02-21T03:52:05.419Z,15.88
2019-02-21T03:52:38.007Z,24.27
2019-02-21T03:53:10.849Z,17.73
2019-02-21T03:53:43.692Z,18.40
2019-02-21T03:54:16.155Z,18.95
2019-02-21T03:54:49.263Z,22.00
2019-02-21T03:55:22.029Z,23.20
2019-02-21T03:55:54.902Z,18.32
2019-02-21T03:56:27.921Z,21.65
2019-02-21T03:57:00.396Z,26.52
2019-02-21T03:57:33.195Z,26.45
2019-02-21T03:58:06.290Z,21.55
2019-02-21T03:58:38.779Z,17.82
2019-02-21T03:59:11.602Z,22.27
2019-02-21T03:59:44.083Z,20.90
2019-02-21T04:00:16.959Z,19.07
2019-02-21T04:00:49.542Z,20.25
2019-02-21T04:01:22.301Z,21.12
2019-02-21T04:02:04.869Z,19.45
2019-02-21T04:02:29.343Z,19.85
2019-02-21T04:03:01.810Z,22.05
2019-02-21T04:03:34.275Z,23.77
2019-02-21T04:04:06.746Z,12.90
2019-02-21T04:04:39.621Z,16.62
2019-02-21T04:05:12.381Z,18.52
2019-02-21T04:05:45.138Z,13.50
2019-02-21T04:06:18.069Z,22.50
2019-02-21T04:06:50.572Z,25.95
2019-02-21T04:07:23.342Z,15.78
2019-02-21T04:07:56.112Z,15.38
2019-02-21T04:08:28.604Z,20.70
2019-02-21T04:09:01.123Z,32.40
2019-02-21T04:09:33.595Z,20.55
2019-02-21T04:10:06.599Z,19.12
2019-02-21T04:10:39.084Z,13.83
2019-02-21T04:11:11.567Z,20.92
2019-02-21T04:11:44.047Z,21.95
2019-02-21T04:12:16.572Z,23.35
2019-02-21T04:12:49.624Z,21.90
2019-02-21T04:13:22.478Z,23.27
2019-02-21T04:13:54.955Z,20.05
2019-02-21T04:14:27.814Z,26.40
2019-02-21T04:15:00.367Z,25.27
2019-02-21T04:15:32.804Z,21.75
2019-02-21T04:16:05.905Z,22.05
2019-02-21T04:16:39.061Z,33.63
2019-02-21T04:17:11.533Z,22.93
2019-02-21T04:17:44.135Z,19.50
2019-02-21T04:18:16.610Z,22.82
2019-02-21T04:18:49.091Z,27.55
2019-02-21T04:19:21.572Z,25.52
2019-02-21T04:19:54.068Z,23.10
2019-02-21T04:20:26.845Z,19.87
2019-02-21T04:20:59.329Z,27.10
2019-02-21T04:21:31.808Z,22.75
2019-02-21T04:22:04.285Z,25.82
2019-02-21T04:22:37.110Z,21.40
2019-02-21T04:23:10.131Z,24.57
2019-02-21T04:23:42.631Z,26.00
2019-02-21T04:24:15.498Z,25.70
2019-02-21T04:24:47.982Z,25.85
2019-02-21T04:25:20.466Z,27.30
2019-02-21T04:25:53.068Z,24.32
2019-02-21T04:26:26.110Z,18.27
2019-02-21T04:26:58.594Z,28.75
2019-02-21T04:27:31.533Z,25.02
2019-02-21T04:28:04.349Z,17.67
2019-02-21T04:28:37.132Z,20.62
2019-02-21T04:29:09.609Z,21.33
2019-02-21T04:29:42.391Z,25.75
2019-02-21T04:30:14.879Z,26.50
2019-02-21T04:30:47.642Z,23.67
2019-02-21T04:31:20.394Z,25.82
2019-02-21T04:31:52.874Z,18.37
2019-02-21T04:32:25.360Z,20.17
2019-02-21T04:32:57.840Z,27.70
2019-02-21T04:33:30.322Z,19.32
2019-02-21T04:34:03.233Z,21.85
2019-02-21T04:34:35.713Z,20.97
2019-02-21T04:35:08.321Z,22.62
2019-02-21T04:35:40.799Z,24.37
2019-02-21T04:36:13.271Z,22.60
2019-02-21T04:36:45.734Z,22.35
2019-02-21T04:37:18.224Z,26.93
2019-02-21T04:37:51.607Z,24.15
2019-02-21T04:38:24.343Z,21.27
2019-02-21T04:38:56.827Z,27.73
2019-02-21T04:39:29.954Z,27.17
2019-02-21T04:40:02.449Z,20.12
2019-02-21T04:40:34.952Z,20.65
2019-02-21T04:41:07.770Z,18.60
2019-02-21T04:41:40.242Z,23.70
2019-02-21T04:42:13.175Z,29.57
2019-02-21T04:42:46.024Z,29.77
2019-02-21T04:43:18.472Z,25.35
2019-02-21T04:43:51.900Z,34.75
2019-02-21T04:44:24.859Z,27.13
2019-02-21T04:44:57.393Z,21.80
2019-02-21T04:45:29.873Z,29.50
2019-02-21T04:46:02.624Z,22.45
2019-02-21T04:46:35.735Z,23.55
2019-02-21T04:47:08.568Z,33.38
2019-02-21T04:47:41.750Z,23.55
2019-02-21T04:48:14.229Z,21.20
2019-02-21T04:48:46.712Z,23.38
2019-02-21T04:49:19.766Z,23.92
2019-02-21T04:49:52.634Z,27.93
2019-02-21T04:50:25.270Z,30.48
2019-02-21T04:50:58.160Z,22.95
2019-02-21T04:51:30.638Z,27.17
2019-02-21T04:52:03.503Z,28.23
2019-02-21T04:52:36.325Z,30.43
2019-02-21T04:53:09.123Z,29.37
2019-02-21T04:53:41.596Z,32.70
2019-02-21T04:54:15.109Z,26.73
2019-02-21T04:54:47.596Z,26.23
2019-02-21T04:55:20.088Z,27.07
2019-02-21T04:55:52.598Z,28.27
2019-02-21T04:56:25.340Z,34.53
2019-02-21T04:56:57.914Z,28.73
2019-02-21T04:57:30.400Z,21.93
2019-02-21T04:58:03.180Z,29.95
2019-02-21T04:58:35.928Z,26.77
2019-02-21T04:59:08.417Z,23.20
2019-02-21T04:59:40.887Z,21.42
2019-02-21T05:00:13.382Z,29.05
2019-02-21T05:00:45.858Z,24.67
2019-02-21T05:01:18.363Z,25.85
2019-02-21T05:01:50.840Z,25.90
2019-02-21T05:02:29.232Z,26.40
2019-02-21T05:02:57.856Z,21.48
2019-02-21T05:03:30.750Z,26.00
2019-02-21T05:04:04.941Z,27.27
2019-02-21T05:04:37.548Z,26.17
2019-02-21T05:05:11.062Z,30.68
2019-02-21T05:05:43.560Z,24.45
2019-02-21T05:06:16.043Z,26.52
2019-02-21T05:06:48.896Z,30.60
2019-02-21T05:07:21.383Z,34.38
2019-02-21T05:07:54.129Z,26.93
2019-02-21T05:08:26.637Z,32.58
2019-02-21T05:08:59.128Z,24.20
2019-02-21T05:09:31.603Z,34.90
2019-02-21T05:10:04.336Z,30.60
2019-02-21T05:10:37.082Z,28.38
2019-02-21T05:11:09.581Z,23.52
2019-02-21T05:11:42.075Z,33.98
2019-02-21T05:12:14.994Z,29.77
2019-02-21T05:12:47.839Z,32.95
2019-02-21T05:13:20.328Z,24.92
2019-02-21T05:13:55.140Z,30.90
2019-02-21T05:14:27.606Z,24.12
2019-02-21T05:15:00.370Z,27.40
2019-02-21T05:15:33.275Z,28.30
2019-02-21T05:16:05.755Z,32.38
2019-02-21T05:16:38.236Z,39.58
2019-02-21T05:17:11.076Z,44.05
2019-02-21T05:17:43.885Z,26.20
2019-02-21T05:18:16.357Z,29.77
2019-02-21T05:18:48.821Z,28.40
2019-02-21T05:19:21.307Z,29.95
2019-02-21T05:19:54.417Z,26.27
2019-02-21T05:20:27.629Z,24.15
2019-02-21T05:21:00.929Z,26.42
2019-02-21T05:21:33.793Z,33.30
2019-02-21T05:22:06.272Z,27.55
2019-02-21T05:22:39.069Z,24.82
2019-02-21T05:23:11.578Z,24.92
2019-02-21T05:23:44.176Z,34.27
2019-02-21T05:24:16.939Z,21.33
2019-02-21T05:24:49.786Z,28.77
2019-02-21T05:25:22.653Z,27.22
2019-02-21T05:25:55.132Z,32.38
2019-02-21T05:26:32.013Z,25.05
2019-02-21T05:27:08.805Z,34.85
2019-02-21T05:27:55.233Z,26.95
2019-02-21T05:28:32.437Z,34.48
2019-02-21T05:29:07.258Z,31.12
2019-02-21T05:29:40.141Z,28.87
2019-02-21T05:30:16.403Z,28.92
2019-02-21T05:30:50.144Z,26.80
2019-02-21T05:31:31.529Z,34.60
2019-02-21T05:32:23.419Z,28.27
2019-02-21T05:33:27.492Z,34.58
2019-02-21T05:34:04.989Z,30.57
2019-02-21T05:34:56.974Z,27.48
2019-02-21T05:35:48.665Z,32.05
2019-02-21T05:36:49.904Z,33.42
2019-02-21T05:37:57.244Z,29.18
2019-02-21T05:38:44.740Z,31.15
2019-02-21T05:39:30.188Z,32.33
2019-02-21T05:40:28.573Z,36.28
2019-02-21T05:41:21.047Z,31.37
2019-02-21T05:42:11.967Z,29.87
2019-02-21T05:43:01.053Z,25.30
2019-02-21T05:43:55.792Z,34.53
2019-02-21T05:44:46.944Z,26.73
2019-02-21T05:45:46.779Z,33.88
2019-02-21T05:46:41.055Z,27.50
2019-02-21T05:47:33.035Z,34.65
2019-02-21T05:48:17.754Z,29.63
2019-02-21T05:49:12.784Z,33.58
2019-02-21T05:49:53.335Z,29.90
2019-02-21T05:50:31.905Z,32.60
2019-02-21T05:51:23.874Z,29.40
2019-02-21T05:52:10.623Z,40.30
2019-02-21T05:53:02.942Z,29.70
2019-02-21T05:53:44.208Z,31.62
2019-02-21T05:54:36.551Z,29.00
2019-02-21T05:55:17.514Z,31.55
2019-02-21T05:55:58.547Z,39.90
2019-02-21T05:56:51.076Z,33.67
2019-02-21T05:57:43.053Z,29.35
2019-02-21T05:58:24.685Z,32.78
2019-02-21T05:59:15.338Z,40.80
2019-02-21T06:00:10.266Z,37.63
2019-02-21T06:01:14.574Z,38.42
2019-02-21T06:02:00.809Z,28.12
2019-02-21T06:02:54.103Z,33.67
2019-02-21T06:04:01.352Z,34.25
2019-02-21T06:04:59.123Z,37.45
2019-02-21T06:05:53.890Z,35.30
2019-02-21T06:06:49.040Z,36.45
2019-02-21T06:07:46.875Z,33.45
2019-02-21T06:08:44.133Z,36.20
2019-02-21T06:09:24.145Z,31.27
2019-02-21T06:10:11.172Z,31.93
2019-02-21T06:11:02.461Z,29.95
2019-02-21T06:11:57.244Z,30.60
2019-02-21T06:13:04.826Z,32.28
2019-02-21T06:13:59.928Z,42.75
2019-02-21T06:14:50.173Z,35.05
2019-02-21T06:15:42.130Z,29.48
2019-02-21T06:16:22.037Z,33.38
2019-02-21T06:17:20.127Z,43.80
2019-02-21T06:18:07.510Z,37.15
2019-02-21T06:19:15.013Z,41.85
2019-02-21T06:20:05.747Z,40.50
2019-02-21T06:21:04.055Z,37.45
2019-02-21T06:22:09.675Z,32.67
2019-02-21T06:22:50.322Z,37.53
2019-02-21T06:23:31.696Z,41.80
2019-02-21T06:24:21.382Z,37.15
2019-02-21T06:25:10.920Z,34.33
2019-02-21T06:25:58.888Z,50.03
2019-02-21T06:26:47.264Z,38.73
2019-02-21T06:27:23.648Z,40.92
2019-02-21T06:28:09.451Z,37.50
2019-02-21T06:29:04.354Z,35.17
2019-02-21T06:29:49.038Z,34.45
2019-02-21T06:30:26.519Z,39.10
2019-02-21T06:31:05.317Z,35.33
2019-02-21T06:31:37.799Z,35.05
2019-02-21T06:32:14.183Z,34.43
2019-02-21T06:32:44.871Z,41.85
2019-02-21T06:33:17.391Z,40.88
2019-02-21T06:33:50.131Z,40.40
2019-02-21T06:34:22.614Z,35.60
2019-02-21T06:34:55.094Z,38.35
2019-02-21T06:35:27.969Z,35.13
2019-02-21T06:36:00.446Z,38.90
2019-02-21T06:36:32.930Z,52.08
2019-02-21T06:37:05.431Z,39.73
2019-02-21T06:37:38.559Z,46.37
2019-02-21T06:38:11.030Z,41.42
2019-02-21T06:38:43.993Z,44.80
2019-02-21T06:39:16.750Z,40.23
2019-02-21T06:39:49.243Z,40.58
2019-02-21T06:40:21.728Z,35.17
2019-02-21T06:40:54.496Z,40.90
2019-02-21T06:41:27.001Z,42.20
2019-02-21T06:42:00.283Z,42.85
2019-02-21T06:42:33.138Z,41.35
2019-02-21T06:43:06.177Z,48.15
2019-02-21T06:43:38.651Z,36.95
2019-02-21T06:44:11.785Z,38.02
2019-02-21T06:44:44.648Z,50.95
2019-02-21T06:45:18.162Z,48.17
2019-02-21T06:45:51.657Z,40.83
2019-02-21T06:46:24.423Z,41.18
2019-02-21T06:46:57.177Z,41.08
2019-02-21T06:47:29.650Z,44.83
2019-02-21T06:48:02.480Z,39.92
2019-02-21T06:48:35.373Z,45.55
2019-02-21T06:49:07.855Z,40.70
2019-02-21T06:49:40.387Z,40.28
2019-02-21T06:50:14.473Z,47.25
2019-02-21T06:50:47.865Z,44.45
2019-02-21T06:51:20.694Z,39.08
2019-02-21T06:51:53.912Z,43.73
2019-02-21T06:52:26.390Z,36.75
2019-02-21T06:52:59.241Z,46.65
2019-02-21T06:53:32.288Z,53.60
2019-02-21T06:54:05.042Z,47.73
2019-02-21T06:54:37.846Z,45.88
2019-02-21T06:55:10.354Z,38.30
2019-02-21T06:55:43.370Z,37.20
2019-02-21T06:56:15.846Z,46.45
2019-02-21T06:56:48.324Z,43.65
2019-02-21T06:57:21.106Z,38.63
2019-02-21T06:57:53.580Z,49.67
2019-02-21T06:58:26.379Z,37.75
2019-02-21T06:58:59.128Z,38.40
2019-02-21T06:59:41.572Z,43.52
2019-02-21T07:00:05.929Z,44.08
2019-02-21T07:00:38.733Z,45.83
2019-02-21T07:01:11.549Z,39.60
2019-02-21T07:01:44.610Z,48.28
2019-02-21T07:02:17.642Z,37.55
2019-02-21T07:02:50.137Z,42.62
2019-02-21T07:03:23.243Z,50.50
2019-02-21T07:03:55.728Z,45.12
2019-02-21T07:04:28.575Z,37.85
2019-02-21T07:05:01.346Z,55.35
2019-02-21T07:05:34.123Z,48.15
2019-02-21T07:06:06.667Z,43.87
2019-02-21T07:06:39.378Z,43.95
2019-02-21T07:07:11.847Z,51.00
2019-02-21T07:07:44.343Z,44.58
2019-02-21T07:08:16.823Z,45.67
2019-02-21T07:08:49.623Z,51.77
2019-02-21T07:09:22.098Z,44.00
2019-02-21T07:09:54.649Z,44.40
2019-02-21T07:10:27.136Z,48.65
2019-02-21T07:11:06.197Z,51.33
2019-02-21T07:11:34.203Z,44.18
2019-02-21T07:12:06.967Z,45.03
2019-02-21T07:12:39.714Z,40.48
2019-02-21T07:13:12.231Z,43.95
2019-02-21T07:13:44.702Z,43.73
2019-02-21T07:14:17.208Z,41.13
2019-02-21T07:14:49.674Z,42.23
2019-02-21T07:15:22.154Z,41.77
2019-02-21T07:15:55.353Z,43.05
2019-02-21T07:16:28.178Z,46.20
2019-02-21T07:17:00.980Z,43.10
2019-02-21T07:17:33.824Z,49.00
2019-02-21T07:18:06.309Z,55.08
2019-02-21T07:18:40.879Z,49.60
2019-02-21T07:19:13.523Z,51.00
2019-02-21T07:19:45.997Z,49.35
2019-02-21T07:20:18.485Z,43.20
2019-02-21T07:20:51.626Z,51.92
2019-02-21T07:21:24.511Z,45.12
2019-02-21T07:21:57.376Z,49.80
2019-02-21T07:22:29.890Z,46.65
2019-02-21T07:23:02.380Z,45.55
2019-02-21T07:23:43.042Z,49.75
2019-02-21T07:24:09.123Z,44.80